Time;durP1;ratioP1;P1;durP2;ratioP2;P2;SDS_P1;SDS_P2;PMS_P1;PMS_P2;Temp;Humidity;BMP_temperature;BMP_pressure;BME280_temperature;BME280_humidity;BME280_pressure;Samples;Min_cycle;Max_cycle;Signal;HPM_P1;HPM_P2
2023/05/11 00:00:33;;;;;;;22.58;18.33;;;15.70;99.90;;;;;;4905270;29;20020;-90
2023/05/11 00:03:06;;;;;;;20.48;18.30;;;15.70;99.90;;;;;;4942130;29;20030;-89
2023/05/11 00:05:41;;;;;;;23.58;17.35;;;15.70;99.90;;;;;;4957315;29;20479;-90
2023/05/11 00:08:07;;;;;;;21.92;18.45;;;15.70;99.90;;;;;;4924295;29;20031;-89
2023/05/11 00:10:35;;;;;;;19.45;17.45;;;15.70;99.90;;;;;;4923686;29;20039;-91
2023/05/11 00:13:01;;;;;;;20.10;16.73;;;15.70;99.90;;;;;;4924382;29;20191;-89
2023/05/11 00:15:27;;;;;;;20.52;17.27;;;15.70;99.90;;;;;;4956191;29;20078;-90
2023/05/11 00:17:52;;;;;;;20.70;18.48;;;15.70;99.90;;;;;;4924699;29;20039;-90
2023/05/11 00:20:20;;;;;;;19.83;17.60;;;15.70;99.90;;;;;;4939414;29;20453;-89
2023/05/11 00:22:45;;;;;;;18.75;16.73;;;15.60;99.90;;;;;;4948144;28;20371;-88
2023/05/11 00:25:14;;;;;;;20.20;16.65;;;15.60;99.90;;;;;;4979183;28;20039;-89
2023/05/11 00:27:44;;;;;;;19.75;17.65;;;15.60;99.90;;;;;;4963624;28;20443;-90
2023/05/11 00:30:11;;;;;;;19.13;17.05;;;15.60;99.90;;;;;;4963214;28;20081;-89
2023/05/11 00:32:36;;;;;;;18.90;16.40;;;15.60;99.90;;;;;;4972725;28;20430;-90
2023/05/11 00:35:02;;;;;;;22.35;16.60;;;15.60;99.90;;;;;;4979335;28;20027;-89
2023/05/11 00:37:28;;;;;;;19.25;17.10;;;15.60;99.90;;;;;;4962823;28;20026;-89
2023/05/11 00:39:53;;;;;;;18.58;16.58;;;15.60;99.90;;;;;;4943368;29;20575;-89
2023/05/11 00:42:19;;;;;;;20.27;17.17;;;15.60;99.90;;;;;;4954956;28;20125;-92
2023/05/11 00:44:46;;;;;;;18.33;16.13;;;15.60;99.90;;;;;;4960606;28;20051;-89
2023/05/11 00:47:12;;;;;;;21.38;17.25;;;15.50;99.90;;;;;;4959508;29;20396;-89
2023/05/11 00:49:38;;;;;;;19.95;16.58;;;15.60;99.90;;;;;;4959626;29;20035;-89
2023/05/11 00:52:04;;;;;;;20.67;17.42;;;15.60;99.90;;;;;;4971870;28;20098;-90
2023/05/11 00:54:30;;;;;;;20.67;17.73;;;15.50;99.90;;;;;;4979761;28;20033;-90
2023/05/11 00:56:56;;;;;;;20.48;17.45;;;15.60;99.90;;;;;;4964025;28;20059;-89
2023/05/11 00:59:22;;;;;;;19.98;17.88;;;15.60;99.90;;;;;;4971255;28;20010;-89
2023/05/11 01:01:48;;;;;;;18.48;16.58;;;15.60;99.90;;;;;;4967735;28;20094;-90
2023/05/11 01:04:14;;;;;;;20.65;16.77;;;15.60;99.90;;;;;;4983406;28;20046;-88
2023/05/11 01:06:50;;;;;;;18.63;16.73;;;15.50;99.90;;;;;;5000424;28;20057;-90
2023/05/11 01:09:19;;;;;;;20.30;17.35;;;15.60;99.90;;;;;;4974810;28;20069;-88
2023/05/11 01:11:51;;;;;;;20.02;17.73;;;15.50;99.90;;;;;;4944710;29;20078;-90
2023/05/11 01:14:32;;;;;;;20.23;17.75;;;15.60;99.90;;;;;;4960825;28;20060;-89
2023/05/11 01:23:19;;;;;;;22.73;19.83;;;15.60;99.90;;;;;;5207026;23;20055;-93
2023/05/11 01:25:53;;;;;;;21.77;18.20;;;15.50;99.90;;;;;;4980145;28;20043;-90
2023/05/11 01:28:31;;;;;;;20.42;18.23;;;15.50;99.90;;;;;;4962632;28;20062;-90
2023/05/11 01:31:05;;;;;;;19.63;17.38;;;15.50;99.90;;;;;;4979529;28;20050;-90
2023/05/11 01:33:35;;;;;;;20.83;18.30;;;15.50;99.90;;;;;;4962306;28;20023;-90
2023/05/11 01:36:10;;;;;;;21.90;17.37;;;15.50;99.90;;;;;;4961805;28;20030;-90
2023/05/11 01:38:40;;;;;;;19.95;17.70;;;15.60;99.90;;;;;;4979305;28;20298;-90
2023/05/11 01:41:12;;;;;;;19.90;17.57;;;15.60;99.90;;;;;;4962239;28;20522;-89
2023/05/11 01:43:39;;;;;;;21.23;18.48;;;15.60;99.90;;;;;;4978763;28;20027;-90
2023/05/11 01:46:08;;;;;;;21.98;18.20;;;15.60;99.90;;;;;;4961767;28;20518;-91
2023/05/11 01:48:38;;;;;;;21.35;18.08;;;15.60;99.90;;;;;;4962443;28;20061;-90
2023/05/11 01:51:06;;;;;;;21.58;18.38;;;15.60;99.90;;;;;;4961787;28;20094;-90
2023/05/11 01:53:35;;;;;;;20.83;17.80;;;15.60;99.90;;;;;;4961927;28;20018;-91
2023/05/11 01:56:02;;;;;;;20.77;17.00;;;15.60;99.90;;;;;;4979077;28;20034;-90
2023/05/11 01:58:29;;;;;;;20.55;18.30;;;15.60;99.90;;;;;;4945941;28;20472;-90
2023/05/11 02:00:59;;;;;;;20.13;17.33;;;15.60;99.90;;;;;;4945608;28;20030;-90
2023/05/11 02:03:40;;;;;;;20.15;17.30;;;15.60;99.90;;;;;;4962214;28;20026;-91
2023/05/11 02:06:09;;;;;;;;;;;15.60;99.90;;;;;;4979060;28;20031;-90
2023/05/11 02:08:43;;;;;;;21.40;16.90;;;15.60;99.90;;;;;;4977507;28;20444;-90
2023/05/11 02:11:10;;;;;;;20.80;17.80;;;15.60;99.90;;;;;;4977308;28;20079;-90
2023/05/11 02:13:42;;;;;;;20.48;17.90;;;15.60;99.90;;;;;;4960387;28;20382;-90
2023/05/11 02:16:09;;;;;;;21.55;17.42;;;15.60;99.90;;;;;;4959907;28;20033;-92
2023/05/11 02:18:41;;;;;;;23.48;18.30;;;15.60;99.90;;;;;;4944315;28;20039;-90
2023/05/11 02:21:12;;;;;;;21.73;17.67;;;15.60;99.90;;;;;;4943760;28;20057;-91
2023/05/11 02:23:42;;;;;;;19.33;16.63;;;15.60;99.90;;;;;;4960533;28;20074;-90
2023/05/11 02:26:10;;;;;;;19.00;16.65;;;15.60;99.90;;;;;;4961017;28;20030;-91
2023/05/11 02:28:36;;;;;;;21.98;17.35;;;15.60;99.90;;;;;;4961252;28;20382;-90
2023/05/11 02:31:08;;;;;;;21.55;17.17;;;15.60;99.90;;;;;;4961239;28;20027;-89
2023/05/11 02:33:38;;;;;;;20.92;16.80;;;15.60;99.90;;;;;;4961450;28;20019;-92
2023/05/11 02:36:05;;;;;;;20.98;17.08;;;15.60;99.90;;;;;;4960965;28;20034;-92
2023/05/11 02:38:38;;;;;;;22.65;17.33;;;15.60;99.90;;;;;;4961285;28;20034;-90
2023/05/11 02:41:12;;;;;;;22.75;17.05;;;15.60;99.90;;;;;;4978449;28;20038;-90
2023/05/11 02:43:45;;;;;;;20.35;16.05;;;15.60;99.90;;;;;;4972269;28;20014;-90
2023/05/11 02:46:16;;;;;;;22.42;17.25;;;15.60;99.90;;;;;;4982362;28;20030;-89
2023/05/11 02:49:02;;;;;;;20.77;16.73;;;15.60;99.90;;;;;;4983142;28;20014;-91
2023/05/11 02:51:36;;;;;;;23.13;16.92;;;15.60;99.90;;;;;;4981820;28;20038;-90
2023/05/11 02:54:05;;;;;;;21.92;16.88;;;15.70;99.90;;;;;;4980688;28;20011;-86
2023/05/11 02:56:32;;;;;;;21.02;15.88;;;15.60;99.90;;;;;;4967694;28;20118;-91
2023/05/11 02:58:58;;;;;;;22.85;17.88;;;15.60;99.90;;;;;;4944202;28;20054;-91
2023/05/11 03:01:24;;;;;;;20.52;15.63;;;15.60;99.90;;;;;;4960583;28;20031;-90
2023/05/11 03:03:53;;;;;;;20.08;16.52;;;15.60;99.90;;;;;;4945089;28;20081;-92
2023/05/11 03:06:19;;;;;;;21.65;16.58;;;15.60;99.90;;;;;;4960689;28;20019;-90
2023/05/11 03:08:45;;;;;;;21.92;16.92;;;15.60;99.90;;;;;;4945235;28;20439;-90
2023/05/11 03:11:13;;;;;;;22.08;16.77;;;15.50;99.90;;;;;;4944979;28;20471;-90
2023/05/11 03:13:41;;;;;;;20.65;15.73;;;15.50;99.90;;;;;;4944818;28;20471;-90
2023/05/11 03:16:08;;;;;;;22.15;17.35;;;15.60;99.90;;;;;;4977644;28;20030;-90
2023/05/11 03:18:35;;;;;;;22.30;17.38;;;15.50;99.90;;;;;;4960904;28;20035;-92
2023/05/11 03:21:01;;;;;;;21.08;16.35;;;15.50;99.90;;;;;;4961074;28;20050;-90
2023/05/11 03:23:28;;;;;;;23.40;17.25;;;15.50;99.90;;;;;;4960255;28;20093;-91
2023/05/11 03:25:55;;;;;;;23.05;17.40;;;15.50;99.90;;;;;;4943425;28;20037;-90
2023/05/11 03:28:22;;;;;;;21.08;16.10;;;15.50;99.90;;;;;;4959349;28;20023;-91
2023/05/11 03:30:50;;;;;;;26.00;17.00;;;15.50;99.90;;;;;;4943452;28;20027;-92
2023/05/11 03:33:16;;;;;;;23.63;16.52;;;15.50;99.90;;;;;;4959403;28;20031;-90
2023/05/11 03:35:44;;;;;;;24.00;16.33;;;15.50;99.90;;;;;;4943379;28;20035;-91
2023/05/11 03:38:11;;;;;;;24.23;15.95;;;15.50;99.90;;;;;;4976963;28;20111;-90
2023/05/11 03:40:40;;;;;;;21.02;14.75;;;15.50;99.90;;;;;;4978359;28;20059;-91
2023/05/11 03:43:10;;;;;;;23.63;15.45;;;15.50;99.90;;;;;;4960596;28;20023;-91
2023/05/11 03:45:37;;;;;;;24.15;16.80;;;15.50;99.90;;;;;;4960427;28;20023;-90
2023/05/11 03:48:05;;;;;;;21.40;16.23;;;15.50;99.90;;;;;;4944534;28;20031;-90
2023/05/11 03:50:32;;;;;;;22.63;15.85;;;15.50;99.90;;;;;;4977510;28;20023;-91
2023/05/11 03:52:59;;;;;;;22.27;16.02;;;15.50;99.90;;;;;;4977145;28;20030;-91
2023/05/11 03:55:25;;;;;;;24.73;16.77;;;15.50;99.90;;;;;;4960233;28;20062;-91
2023/05/11 03:57:51;;;;;;;25.55;18.30;;;15.50;99.90;;;;;;4979322;28;20039;-92
2023/05/11 04:00:17;;;;;;;23.88;16.50;;;15.40;99.90;;;;;;4948145;28;20023;-89
2023/05/11 04:02:43;;;;;;;21.73;16.63;;;15.40;99.90;;;;;;4963953;28;20116;-91
2023/05/11 04:05:12;;;;;;;23.25;16.52;;;15.40;99.90;;;;;;4948467;28;20071;-90
2023/05/11 04:07:38;;;;;;;23.55;17.08;;;15.40;99.90;;;;;;4964369;28;20538;-90
2023/05/11 04:10:05;;;;;;;21.95;16.33;;;15.40;99.90;;;;;;4963943;28;20019;-90
2023/05/11 04:12:31;;;;;;;25.05;17.63;;;15.40;99.90;;;;;;4964246;28;20050;-91
2023/05/11 04:14:57;;;;;;;24.25;16.90;;;15.40;99.90;;;;;;4964391;28;20037;-87
2023/05/11 04:17:23;;;;;;;22.48;15.52;;;15.40;99.90;;;;;;4948276;28;20062;-90
2023/05/11 04:19:48;;;;;;;25.25;16.30;;;15.40;99.90;;;;;;4964864;28;20482;-91
2023/05/11 04:22:15;;;;;;;23.58;16.58;;;15.30;99.90;;;;;;4980618;28;20094;-88
2023/05/11 04:24:40;;;;;;;23.98;15.68;;;15.30;99.90;;;;;;4951607;28;20026;-91
2023/05/11 04:27:06;;;;;;;24.65;17.23;;;15.30;99.90;;;;;;4965083;28;20017;-90
2023/05/11 04:29:32;;;;;;;24.92;18.17;;;15.40;99.90;;;;;;4968813;28;20027;-89
2023/05/11 04:31:57;;;;;;;24.05;17.10;;;15.40;99.90;;;;;;4984578;28;20406;-91
2023/05/11 04:34:25;;;;;;;23.13;16.42;;;15.40;99.90;;;;;;4966741;28;20027;-90
2023/05/11 04:36:50;;;;;;;23.67;17.02;;;15.30;99.90;;;;;;4991282;28;20034;-90
2023/05/11 04:39:16;;;;;;;28.30;18.27;;;15.40;99.90;;;;;;4948493;28;20411;-94
2023/05/11 04:41:43;;;;;;;22.83;16.35;;;15.30;99.90;;;;;;4950039;28;20030;-93
2023/05/11 04:44:09;;;;;;;24.75;17.90;;;15.40;99.90;;;;;;4964953;28;20019;-91
2023/05/11 04:46:37;;;;;;;25.30;16.67;;;15.40;99.90;;;;;;4963863;28;20031;-92
2023/05/11 04:49:03;;;;;;;25.75;17.90;;;15.40;99.90;;;;;;4964247;28;20029;-93
2023/05/11 04:51:29;;;;;;;25.88;17.85;;;15.40;99.90;;;;;;4947649;28;20094;-90
2023/05/11 04:53:55;;;;;;;27.45;18.48;;;15.40;99.90;;;;;;4948026;28;20062;-91
2023/05/11 04:56:20;;;;;;;28.15;18.35;;;15.40;99.90;;;;;;4980807;28;20486;-92
2023/05/11 04:58:46;;;;;;;27.50;19.15;;;15.40;99.90;;;;;;4963769;28;20050;-92
2023/05/11 05:01:12;;;;;;;28.52;19.38;;;15.40;99.90;;;;;;4980625;28;20027;-92
2023/05/11 05:03:38;;;;;;;26.65;19.05;;;15.40;99.90;;;;;;4947211;28;20031;-91
2023/05/11 05:06:03;;;;;;;29.52;19.08;;;15.40;99.90;;;;;;4963412;28;20031;-91
2023/05/11 05:08:29;;;;;;;29.08;19.08;;;15.30;99.90;;;;;;4962956;28;20030;-92
2023/05/11 05:10:55;;;;;;;27.75;18.17;;;15.40;99.90;;;;;;4962658;28;20038;-92
2023/05/11 05:13:20;;;;;;;28.40;19.52;;;15.30;99.90;;;;;;4980089;28;20459;-89
2023/05/11 05:15:49;;;;;;;27.70;18.67;;;15.30;99.90;;;;;;4963789;28;20031;-91
2023/05/11 05:18:15;;;;;;;27.85;18.52;;;15.30;99.90;;;;;;4947639;28;20035;-93
2023/05/11 05:20:40;;;;;;;27.20;18.45;;;15.40;99.90;;;;;;4966044;28;20027;-92
2023/05/11 05:23:06;;;;;;;27.77;18.50;;;15.30;99.90;;;;;;4966246;28;20133;-93
2023/05/11 05:25:32;;;;;;;30.88;18.20;;;15.40;99.90;;;;;;4963360;28;20027;-92
2023/05/11 05:27:58;;;;;;;27.48;17.95;;;15.40;99.90;;;;;;4948201;28;20031;-92
2023/05/11 05:30:27;;;;;;;28.20;18.00;;;15.40;99.90;;;;;;4963590;28;20023;-91
2023/05/11 05:32:53;;;;;;;26.98;18.13;;;15.40;99.90;;;;;;4963873;28;20035;-92
2023/05/11 05:35:19;;;;;;;26.35;18.65;;;15.40;99.90;;;;;;4980941;28;20053;-93
2023/05/11 05:37:45;;;;;;;31.48;19.45;;;15.40;99.90;;;;;;4962831;28;20475;-95
2023/05/11 05:40:11;;;;;;;31.50;20.42;;;15.40;99.90;;;;;;4963644;28;20464;-91
2023/05/11 05:42:36;;;;;;;28.92;20.33;;;15.40;99.90;;;;;;4948244;28;20027;-91
2023/05/11 05:45:02;;;;;;;30.83;21.17;;;15.40;99.90;;;;;;4967622;28;20027;-93
2023/05/11 05:47:28;;;;;;;28.95;21.23;;;15.40;99.90;;;;;;4967461;28;20023;-92
2023/05/11 05:49:54;;;;;;;31.80;21.40;;;15.40;99.90;;;;;;4966234;28;20019;-91
2023/05/11 05:52:22;;;;;;;34.90;21.83;;;15.40;99.90;;;;;;4964914;28;20382;-92
2023/05/11 05:54:47;;;;;;;30.35;20.80;;;15.40;99.90;;;;;;4947897;28;20030;-92
2023/05/11 05:57:13;;;;;;;31.23;20.45;;;15.40;99.90;;;;;;4963118;28;20054;-92
2023/05/11 05:59:39;;;;;;;29.83;19.88;;;15.50;99.90;;;;;;4945107;28;20034;-91
2023/05/11 06:02:05;;;;;;;34.58;21.35;;;15.50;99.90;;;;;;4961714;28;20034;-92
2023/05/11 06:04:31;;;;;;;35.70;22.05;;;15.50;99.90;;;;;;4948029;28;20121;-91
2023/05/11 06:06:58;;;;;;;31.23;20.63;;;15.50;99.90;;;;;;4970177;28;20033;-92
2023/05/11 06:09:27;;;;;;;32.28;21.02;;;15.60;99.90;;;;;;4983182;28;20031;-90
2023/05/11 06:11:53;;;;;;;30.30;20.75;;;15.60;99.90;;;;;;4982739;28;20027;-92
2023/05/11 06:14:19;;;;;;;31.40;21.15;;;15.60;99.90;;;;;;4983312;28;20055;-91
2023/05/11 06:16:45;;;;;;;32.83;21.35;;;15.60;99.90;;;;;;4983905;28;20029;-91
2023/05/11 06:19:12;;;;;;;30.60;20.88;;;15.70;99.90;;;;;;5000457;28;20022;-91
2023/05/11 06:21:40;;;;;;;28.30;19.40;;;15.70;99.90;;;;;;4968921;28;20055;-92
2023/05/11 06:24:06;;;;;;;26.20;19.80;;;15.80;99.90;;;;;;4963139;28;20114;-92
2023/05/11 06:26:32;;;;;;;30.25;20.40;;;15.80;99.90;;;;;;4979004;28;20483;-94
2023/05/11 06:28:57;;;;;;;29.15;20.50;;;15.80;99.90;;;;;;4979654;28;20058;-94
2023/05/11 06:31:23;;;;;;;32.03;21.38;;;15.80;99.90;;;;;;4979904;28;20023;-93
2023/05/11 06:33:49;;;;;;;29.10;20.92;;;15.80;99.90;;;;;;4978645;28;20053;-93
2023/05/11 06:36:15;;;;;;;36.08;22.85;;;15.90;99.90;;;;;;4962187;28;20066;-94
2023/05/11 06:38:40;;;;;;;30.13;21.10;;;15.90;99.90;;;;;;4961814;28;20035;-91
2023/05/11 06:41:08;;;;;;;28.20;20.30;;;15.90;99.90;;;;;;4963289;28;20026;-93
2023/05/11 06:43:34;;;;;;;28.20;19.98;;;15.90;99.90;;;;;;4979490;28;20019;-93
2023/05/11 06:45:59;;;;;;;30.75;20.98;;;16.00;99.90;;;;;;4962584;28;20026;-94
2023/05/11 06:48:28;;;;;;;28.63;21.73;;;15.90;99.90;;;;;;4962258;28;20142;-94
2023/05/11 06:50:54;;;;;;;28.40;20.27;;;15.90;99.90;;;;;;4961615;28;20026;-92
2023/05/11 06:53:20;;;;;;;26.33;19.35;;;15.90;99.90;;;;;;4963706;28;20033;-90
2023/05/11 06:55:46;;;;;;;27.88;19.92;;;16.00;99.90;;;;;;4961262;28;20117;-92
2023/05/11 06:58:12;;;;;;;29.83;20.65;;;16.00;99.90;;;;;;4977321;28;20034;-94
2023/05/11 07:00:38;;;;;;;28.48;21.42;;;16.00;99.90;;;;;;4961624;28;20070;-93
2023/05/11 07:03:04;;;;;;;26.58;20.42;;;16.10;99.90;;;;;;5104621;23;20045;-94
2023/05/11 07:05:30;;;;;;;27.00;21.20;;;16.10;99.90;;;;;;4986065;28;20067;-89
2023/05/11 07:07:56;;;;;;;27.17;20.75;;;16.10;99.90;;;;;;4961922;28;20034;-93
2023/05/11 07:10:24;;;;;;;29.83;21.50;;;16.20;99.90;;;;;;4960801;28;20517;-92
2023/05/11 07:12:50;;;;;;;27.55;21.25;;;16.20;99.90;;;;;;4974928;28;20034;-93
2023/05/11 07:15:16;;;;;;;29.10;23.05;;;16.30;99.90;;;;;;4975317;28;20030;-94
2023/05/11 07:17:46;;;;;;;28.85;22.27;;;16.30;99.90;;;;;;4959249;28;20038;-94
2023/05/11 07:20:12;;;;;;;29.95;21.63;;;16.40;99.90;;;;;;4962414;28;20031;-94
2023/05/11 07:22:37;;;;;;;30.25;23.05;;;16.40;99.90;;;;;;4974277;28;20081;-92
2023/05/11 07:25:03;;;;;;;27.90;21.27;;;16.40;99.90;;;;;;4977739;28;20061;-93
2023/05/11 07:27:33;;;;;;;28.02;20.60;;;16.40;99.90;;;;;;4975396;28;20106;-92
2023/05/11 07:29:59;;;;;;;27.10;20.33;;;16.40;99.90;;;;;;4949789;28;20035;-93
2023/05/11 07:32:25;;;;;;;25.27;20.40;;;16.50;99.90;;;;;;4961088;28;20502;-90
2023/05/11 07:34:50;;;;;;;27.02;20.77;;;16.50;99.90;;;;;;4953564;29;20031;-91
2023/05/11 07:37:17;;;;;;;28.50;22.05;;;16.50;99.90;;;;;;4941535;29;20476;-93
2023/05/11 07:39:42;;;;;;;29.70;22.50;;;16.50;99.90;;;;;;4958260;29;20170;-91
2023/05/11 07:42:08;;;;;;;27.77;22.25;;;16.60;99.90;;;;;;4941327;29;20488;-92
2023/05/11 07:44:34;;;;;;;26.52;21.27;;;16.60;99.90;;;;;;4958965;29;20031;-92
2023/05/11 07:46:59;;;;;;;27.27;21.92;;;16.60;99.90;;;;;;4927129;28;20039;-94
2023/05/11 07:52:23;;;;;;;26.17;22.25;;;16.70;99.90;;;;;;5674141;23;20053;-93
2023/05/11 07:54:51;;;;;;;29.90;24.35;;;16.70;99.90;;;;;;4956272;28;20051;-89
2023/05/11 07:57:18;;;;;;;31.17;23.88;;;16.70;99.90;;;;;;4981628;28;20023;-88
2023/05/11 08:00:05;;;;;;;27.65;22.25;;;16.80;99.90;;;;;;5072979;23;20936;-90
2023/05/11 08:05:05;;;;;;;27.00;22.33;;;16.90;99.90;;;;;;5866389;23;20824;-93
2023/05/11 08:12:58;;;;;;;26.35;21.48;;;17.10;99.90;;;;;;5177544;23;20058;-94
2023/05/11 08:15:24;;;;;;;26.17;21.92;;;17.10;99.90;;;;;;4946240;29;20503;-92
2023/05/11 08:17:50;;;;;;;25.00;20.38;;;17.20;99.90;;;;;;4939724;29;20091;-94
2023/05/11 08:20:16;;;;;;;24.55;21.02;;;17.30;99.90;;;;;;4960765;29;20023;-94
2023/05/11 08:22:59;;;;;;;26.92;22.27;;;17.40;99.90;;;;;;4924438;29;20027;-92
2023/05/11 08:25:27;;;;;;;26.35;21.02;;;17.50;99.90;;;;;;4947116;29;20023;-93
2023/05/11 08:28:18;;;;;;;24.45;20.85;;;17.50;99.90;;;;;;5294197;23;20040;-86
2023/05/11 08:30:44;;;;;;;;;;;17.60;99.90;;;;;;5009011;23;20074;-94
2023/05/11 08:36:02;;;;;;;25.35;21.42;;;17.70;99.90;;;;;;5573357;23;20491;-94
2023/05/11 08:38:38;;;;;;;24.58;21.45;;;17.70;99.90;;;;;;4952976;29;20048;-94
2023/05/11 08:41:06;;;;;;;24.33;20.92;;;17.70;99.90;;;;;;4934333;29;20062;-94
2023/05/11 08:43:38;;;;;;;23.05;20.50;;;17.70;99.90;;;;;;4942836;29;20031;-92
2023/05/11 08:46:18;;;;;;;23.88;20.65;;;17.70;99.90;;;;;;4927285;29;20028;-93
2023/05/11 08:51:12;;;;;;;22.35;19.90;;;17.60;99.90;;;;;;4954874;29;20062;-95
2023/05/11 08:56:20;;;;;;;22.00;19.38;;;17.60;99.90;;;;;;5753058;23;20050;-92
2023/05/11 08:58:51;;;;;;;21.60;19.17;;;17.60;99.90;;;;;;4952787;29;20054;-93
2023/05/11 09:01:18;;;;;;;23.30;19.83;;;17.60;99.90;;;;;;4949610;29;20404;-93
2023/05/11 09:03:47;;;;;;;25.52;21.23;;;17.70;99.90;;;;;;4950053;29;20116;-94
2023/05/11 09:06:13;;;;;;;23.30;20.20;;;17.80;99.90;;;;;;4948197;29;20063;-95
2023/05/11 09:08:40;;;;;;;25.42;21.42;;;17.70;99.90;;;;;;4944506;29;20030;-92
2023/05/11 09:11:06;;;;;;;26.55;22.83;;;17.80;99.90;;;;;;4941987;29;20024;-92
2023/05/11 09:13:32;;;;;;;26.85;23.95;;;17.80;99.90;;;;;;4942183;29;20047;-91
2023/05/11 09:15:58;;;;;;;26.40;22.45;;;17.80;99.90;;;;;;4943166;29;20031;-93
2023/05/11 09:18:24;;;;;;;25.75;21.83;;;17.90;99.90;;;;;;4941483;29;20027;-93
2023/05/11 09:20:53;;;;;;;26.05;21.88;;;17.90;99.90;;;;;;4941882;29;20035;-92
2023/05/11 09:23:25;;;;;;;23.30;20.80;;;17.90;99.90;;;;;;4941688;29;20027;-93
2023/05/11 09:25:51;;;;;;;22.55;20.05;;;17.90;99.90;;;;;;4941757;29;20379;-94
2023/05/11 09:28:20;;;;;;;24.63;19.65;;;17.90;99.90;;;;;;4941579;29;20023;-91
2023/05/11 09:30:49;;;;;;;25.52;21.15;;;17.90;99.90;;;;;;4941913;29;20027;-91
2023/05/11 09:33:22;;;;;;;23.45;20.45;;;17.90;99.90;;;;;;4926169;29;20087;-93
2023/05/11 09:35:48;;;;;;;21.52;18.67;;;17.90;99.90;;;;;;4959318;29;20035;-90
2023/05/11 09:38:17;;;;;;;21.55;18.52;;;17.90;99.90;;;;;;4941584;29;20029;-94
2023/05/11 09:40:54;;;;;;;22.63;20.23;;;18.00;99.90;;;;;;4942126;29;20032;-94
2023/05/11 09:43:25;;;;;;;24.30;21.23;;;18.00;99.90;;;;;;4941755;29;20034;-93
2023/05/11 09:45:53;;;;;;;22.98;20.30;;;18.00;99.90;;;;;;4963641;28;20008;-86
2023/05/11 09:48:19;;;;;;;20.48;18.27;;;18.10;99.90;;;;;;4965100;29;20007;-92
2023/05/11 09:50:46;;;;;;;19.98;17.40;;;18.00;99.90;;;;;;4965057;28;20039;-93
2023/05/11 09:53:14;;;;;;;18.88;16.00;;;18.00;99.90;;;;;;4949129;28;20011;-92
2023/05/11 09:55:54;;;;;;;17.95;16.05;;;18.00;99.90;;;;;;4961859;29;20035;-93
2023/05/11 09:58:20;;;;;;;20.25;18.13;;;18.00;99.90;;;;;;4934122;29;20066;-95
2023/05/11 10:00:50;;;;;;;20.83;18.60;;;17.90;99.90;;;;;;4960979;29;20042;-93
2023/05/11 10:03:19;;;;;;;20.67;18.43;;;17.90;99.90;;;;;;4941844;29;20030;-94
2023/05/11 10:05:59;;;;;;;19.23;16.52;;;17.90;99.90;;;;;;4958521;29;20035;-94
2023/05/11 10:08:31;;;;;;;19.23;17.08;;;17.90;99.90;;;;;;4941659;29;20464;-92
2023/05/11 10:10:57;;;;;;;21.50;18.00;;;17.90;99.90;;;;;;4941261;29;20027;-93
2023/05/11 10:13:29;;;;;;;20.52;18.33;;;17.80;99.90;;;;;;4941387;29;20428;-93
2023/05/11 10:15:58;;;;;;;21.48;19.17;;;17.80;99.90;;;;;;4925517;29;20043;-94
2023/05/11 10:18:26;;;;;;;22.52;18.90;;;17.80;99.90;;;;;;4940886;29;20087;-93
2023/05/11 10:20:56;;;;;;;21.80;19.48;;;17.80;99.90;;;;;;4940982;29;20042;-93
2023/05/11 10:23:22;;;;;;;23.00;20.40;;;17.80;99.90;;;;;;4940838;29;20102;-93
2023/05/11 10:25:48;;;;;;;23.70;20.23;;;17.70;99.90;;;;;;4925598;29;20666;-95
2023/05/11 10:28:15;;;;;;;25.90;21.27;;;17.70;99.90;;;;;;4958153;29;20030;-93
2023/05/11 10:30:41;;;;;;;28.70;24.00;;;17.60;99.90;;;;;;4957752;29;20460;-93
2023/05/11 10:33:15;;;;;;;27.77;21.88;;;17.60;99.90;;;;;;4941580;29;20032;-93
2023/05/11 10:35:45;;;;;;;26.33;21.90;;;17.40;99.90;;;;;;4958820;29;20039;-94
2023/05/11 10:38:19;;;;;;;27.67;23.00;;;17.40;99.90;;;;;;4948980;29;20024;-94
2023/05/11 10:40:56;;;;;;;31.67;24.13;;;17.30;99.90;;;;;;4955238;29;20023;-96
2023/05/11 10:44:00;;;;;;;32.30;24.95;;;17.20;99.90;;;;;;4953559;29;20027;-96
2023/05/11 10:46:44;;;;;;;29.05;23.33;;;17.10;99.90;;;;;;4966822;29;20097;-94
2023/05/11 10:50:01;;;;;;;27.15;22.38;;;17.10;99.90;;;;;;4956659;29;20035;-94
2023/05/11 10:53:10;;;;;;;29.30;21.75;;;17.10;99.90;;;;;;4960242;29;20027;-95
2023/05/11 10:55:57;;;;;;;30.25;21.13;;;17.00;99.90;;;;;;4961635;29;20011;-94
2023/05/11 11:20:03;;;;;;;24.52;20.45;;;16.80;99.90;;;;;;4977903;29;20078;-90
2023/05/11 11:34:02;;;;;;;17.55;15.23;;;16.60;99.90;;;;;;4977763;28;20059;-95
2023/05/11 11:36:53;;;;;;;17.35;15.52;;;16.60;99.90;;;;;;4962938;28;20027;-94
2023/05/11 11:39:26;;;;;;;18.30;15.65;;;16.60;99.90;;;;;;4961637;29;20028;-95
2023/05/11 11:42:05;;;;;;;18.83;14.75;;;16.60;99.90;;;;;;4946231;29;20023;-96
2023/05/11 11:44:32;;;;;;;14.90;13.40;;;16.60;99.90;;;;;;4943976;29;20061;-95
2023/05/11 11:47:18;;;;;;;13.77;12.38;;;16.60;99.90;;;;;;4943361;29;20019;-94
2023/05/11 11:49:46;;;;;;;13.60;11.45;;;16.60;99.90;;;;;;4941754;29;20023;-95
2023/05/11 11:52:27;;;;;;;13.25;11.85;;;16.60;99.90;;;;;;4940944;29;20027;-95
2023/05/11 11:54:54;;;;;;;;;;;16.60;99.90;;;;;;4940793;29;20035;-95
2023/05/11 11:57:32;;;;;;;13.43;11.35;;;16.60;99.90;;;;;;4939580;29;20409;-94
2023/05/11 12:00:07;;;;;;;15.55;13.30;;;16.60;99.90;;;;;;4941014;29;20037;-95
2023/05/11 12:02:33;;;;;;;18.35;14.93;;;16.60;99.90;;;;;;4958619;28;20019;-95
2023/05/11 12:05:03;;;;;;;17.58;15.15;;;16.60;99.90;;;;;;4940551;29;20391;-94
2023/05/11 12:07:33;;;;;;;19.27;15.57;;;16.60;99.90;;;;;;4940573;29;20031;-94
2023/05/11 12:10:02;;;;;;;18.70;13.43;;;16.70;99.90;;;;;;4957658;28;20030;-95
2023/05/11 12:12:32;;;;;;;18.83;14.13;;;16.70;99.90;;;;;;4957387;28;20019;-95
2023/05/11 12:15:02;;;;;;;15.55;12.45;;;16.70;99.90;;;;;;4939969;29;20032;-94
2023/05/11 12:17:48;;;;;;;13.10;11.70;;;16.80;99.90;;;;;;4940249;29;20020;-95
2023/05/11 12:20:16;;;;;;;13.55;10.98;;;16.80;99.90;;;;;;4928601;29;20118;-95
2023/05/11 12:22:43;;;;;;;11.70;10.48;;;16.80;99.90;;;;;;4960802;28;20027;-94
2023/05/11 12:25:14;;;;;;;10.73;9.73;;;16.80;99.90;;;;;;4943311;29;20036;-94
2023/05/11 12:27:56;;;;;;;9.35;8.38;;;16.80;99.90;;;;;;4943538;29;20031;-93
2023/05/11 12:30:25;;;;;;;10.68;8.98;;;16.90;99.90;;;;;;4943127;29;20031;-94
2023/05/11 12:32:53;;;;;;;9.38;8.18;;;16.90;99.90;;;;;;4942727;29;20056;-93
2023/05/11 12:35:31;;;;;;;8.77;7.88;;;16.90;99.90;;;;;;4942747;29;20043;-93
2023/05/11 12:38:00;;;;;;;11.23;9.02;;;17.00;99.90;;;;;;4942812;29;20479;-93
2023/05/11 12:40:29;;;;;;;11.52;10.32;;;17.00;99.90;;;;;;4942945;29;20031;-94
2023/05/11 12:42:57;;;;;;;10.40;9.38;;;17.00;99.90;;;;;;4942884;29;20074;-93
2023/05/11 12:45:24;;;;;;;10.80;9.70;;;17.10;99.90;;;;;;4942956;29;20130;-94
2023/05/11 12:47:55;;;;;;;12.55;10.38;;;17.10;99.90;;;;;;4942819;29;20051;-93
2023/05/11 12:50:24;;;;;;;10.63;9.52;;;17.10;99.90;;;;;;4959760;29;20030;-93
2023/05/11 12:52:50;;;;;;;10.63;9.57;;;17.20;99.90;;;;;;4942898;29;20088;-94
2023/05/11 12:55:29;;;;;;;9.80;8.75;;;17.20;99.90;;;;;;4942434;29;20118;-93
2023/05/11 12:58:13;;;;;;;8.82;7.90;;;17.20;99.90;;;;;;4942693;29;20023;-93
2023/05/11 13:00:56;;;;;;;8.02;7.18;;;17.20;99.90;;;;;;4944102;29;20090;-94
2023/05/11 13:03:33;;;;;;;7.03;6.35;;;17.20;99.90;;;;;;4943470;29;20030;-95
2023/05/11 13:06:10;;;;;;;8.07;6.10;;;17.20;99.90;;;;;;4943285;29;20041;-93
2023/05/11 13:08:49;;;;;;;7.38;6.10;;;17.30;99.90;;;;;;4961473;29;20023;-96
2023/05/11 13:11:24;;;;;;;6.72;6.03;;;17.30;99.90;;;;;;4943777;29;20067;-94
2023/05/11 13:13:51;;;;;;;5.90;5.38;;;17.40;99.90;;;;;;4945972;29;20538;-95
2023/05/11 13:16:46;;;;;;;7.28;5.75;;;17.40;99.90;;;;;;4960505;29;20039;-93
2023/05/11 13:19:12;;;;;;;6.03;5.43;;;17.40;99.90;;;;;;4953433;29;20020;-89
2023/05/11 13:21:38;;;;;;;6.70;6.00;;;17.40;99.90;;;;;;4963947;29;20039;-95
2023/05/11 13:24:04;;;;;;;7.22;6.53;;;17.50;99.90;;;;;;4959362;29;20039;-95
2023/05/11 13:26:30;;;;;;;8.55;7.35;;;17.50;99.90;;;;;;4933148;29;20062;-93
2023/05/11 13:28:56;;;;;;;8.35;7.55;;;17.60;99.90;;;;;;4942529;29;20019;-95
2023/05/11 13:31:22;;;;;;;9.98;7.82;;;17.60;99.90;;;;;;4941646;29;20028;-95
2023/05/11 13:33:51;;;;;;;9.43;8.23;;;17.70;99.90;;;;;;4941276;29;20130;-94
2023/05/11 13:36:18;;;;;;;10.98;9.48;;;17.70;99.90;;;;;;4941519;29;20113;-93